sensor_id;sensor_type;location;lat;lon;timestamp;temperature;humidity
19813;DHT22;10066;48.108;11.448;2023-02-13T00:01:52;2.30;99.90
19813;DHT22;10066;48.108;11.448;2023-02-13T00:04:20;2.30;99.90
19813;DHT22;10066;48.108;11.448;2023-02-13T00:06:46;2.30;99.90
19813;DHT22;10066;48.108;11.448;2023-02-13T00:09:15;2.30;99.90
19813;DHT22;10066;48.108;11.448;2023-02-13T00:11:42;2.30;99.90
19813;DHT22;10066;48.108;11.448;2023-02-13T00:14:09;2.30;99.90
19813;DHT22;10066;48.108;11.448;2023-02-13T00:16:36;2.30;99.90
19813;DHT22;10066;48.108;11.448;2023-02-13T00:19:03;2.30;99.90
19813;DHT22;10066;48.108;11.448;2023-02-13T00:21:30;2.40;99.90
19813;DHT22;10066;48.108;11.448;2023-02-13T00:23:57;2.40;99.90
19813;DHT22;10066;48.108;11.448;2023-02-13T00:26:25;2.30;99.90
19813;DHT22;10066;48.108;11.448;2023-02-13T00:28:53;2.40;99.90
19813;DHT22;10066;48.108;11.448;2023-02-13T00:31:20;2.40;99.90
19813;DHT22;10066;48.108;11.448;2023-02-13T00:33:47;2.40;99.90
19813;DHT22;10066;48.108;11.448;2023-02-13T00:36:16;2.40;99.90
19813;DHT22;10066;48.108;11.448;2023-02-13T00:38:43;2.40;99.90
19813;DHT22;10066;48.108;11.448;2023-02-13T00:41:11;2.40;99.90
19813;DHT22;10066;48.108;11.448;2023-02-13T00:43:40;2.40;99.90
19813;DHT22;10066;48.108;11.448;2023-02-13T00:46:07;2.40;99.90
19813;DHT22;10066;48.108;11.448;2023-02-13T00:48:34;2.40;99.90
19813;DHT22;10066;48.108;11.448;2023-02-13T00:51:02;2.40;99.90
19813;DHT22;10066;48.108;11.448;2023-02-13T00:53:29;2.40;99.90
19813;DHT22;10066;48.108;11.448;2023-02-13T00:55:56;2.40;99.90
19813;DHT22;10066;48.108;11.448;2023-02-13T00:58:23;2.40;99.90
19813;DHT22;10066;48.108;11.448;2023-02-13T01:00:52;2.40;99.90
19813;DHT22;10066;48.108;11.448;2023-02-13T01:03:20;2.40;99.90
19813;DHT22;10066;48.108;11.448;2023-02-13T01:05:47;2.40;99.90
19813;DHT22;10066;48.108;11.448;2023-02-13T01:08:16;2.40;99.90
19813;DHT22;10066;48.108;11.448;2023-02-13T01:10:44;2.40;99.90
19813;DHT22;10066;48.108;11.448;2023-02-13T01:13:12;2.40;99.90
19813;DHT22;10066;48.108;11.448;2023-02-13T01:15:40;2.40;99.90
19813;DHT22;10066;48.108;11.448;2023-02-13T01:18:09;2.40;99.90
19813;DHT22;10066;48.108;11.448;2023-02-13T01:20:37;2.40;99.90
19813;DHT22;10066;48.108;11.448;2023-02-13T01:23:04;2.40;99.90
19813;DHT22;10066;48.108;11.448;2023-02-13T01:25:31;2.40;99.90
19813;DHT22;10066;48.108;11.448;2023-02-13T01:27:58;2.40;99.90
19813;DHT22;10066;48.108;11.448;2023-02-13T01:30:24;2.40;99.90
19813;DHT22;10066;48.108;11.448;2023-02-13T01:32:51;2.40;99.90
19813;DHT22;10066;48.108;11.448;2023-02-13T01:35:20;2.40;99.90
19813;DHT22;10066;48.108;11.448;2023-02-13T01:37:47;2.40;99.90
19813;DHT22;10066;48.108;11.448;2023-02-13T01:40:14;2.40;99.90
19813;DHT22;10066;48.108;11.448;2023-02-13T01:42:42;2.40;99.90
19813;DHT22;10066;48.108;11.448;2023-02-13T01:45:21;2.40;99.90
19813;DHT22;10066;48.108;11.448;2023-02-13T01:47:51;2.40;99.90
19813;DHT22;10066;48.108;11.448;2023-02-13T01:50:24;2.40;99.90
19813;DHT22;10066;48.108;11.448;2023-02-13T01:52:54;2.40;99.90
19813;DHT22;10066;48.108;11.448;2023-02-13T01:55:24;2.30;99.90
19813;DHT22;10066;48.108;11.448;2023-02-13T01:57:53;2.30;99.90
19813;DHT22;10066;48.108;11.448;2023-02-13T02:00:22;2.30;99.90
19813;DHT22;10066;48.108;11.448;2023-02-13T02:02:51;2.30;99.90
19813;DHT22;10066;48.108;11.448;2023-02-13T02:05:21;2.30;99.90
19813;DHT22;10066;48.108;11.448;2023-02-13T02:07:50;2.30;99.90
19813;DHT22;10066;48.108;11.448;2023-02-13T02:10:18;2.30;99.90
19813;DHT22;10066;48.108;11.448;2023-02-13T02:12:49;2.30;99.90
19813;DHT22;10066;48.108;11.448;2023-02-13T02:15:18;2.30;99.90
19813;DHT22;10066;48.108;11.448;2023-02-13T02:17:46;2.30;99.90
19813;DHT22;10066;48.108;11.448;2023-02-13T02:20:23;2.40;99.90
19813;DHT22;10066;48.108;11.448;2023-02-13T02:26:08;2.30;99.90
19813;DHT22;10066;48.108;11.448;2023-02-13T02:29:13;2.30;99.90
19813;DHT22;10066;48.108;11.448;2023-02-13T02:32:05;2.20;99.90
19813;DHT22;10066;48.108;11.448;2023-02-13T02:34:40;2.20;99.90
19813;DHT22;10066;48.108;11.448;2023-02-13T02:37:22;2.10;99.90
19813;DHT22;10066;48.108;11.448;2023-02-13T02:40:00;2.20;99.90
19813;DHT22;10066;48.108;11.448;2023-02-13T02:42:38;2.10;99.90
19813;DHT22;10066;48.108;11.448;2023-02-13T02:45:11;2.10;99.90
19813;DHT22;10066;48.108;11.448;2023-02-13T02:47:50;2.10;99.90
19813;DHT22;10066;48.108;11.448;2023-02-13T02:50:40;2.10;99.90
19813;DHT22;10066;48.108;11.448;2023-02-13T02:53:28;2.20;99.90
19813;DHT22;10066;48.108;11.448;2023-02-13T02:56:01;2.20;99.90
19813;DHT22;10066;48.108;11.448;2023-02-13T02:58:36;2.20;99.90
19813;DHT22;10066;48.108;11.448;2023-02-13T03:01:24;2.20;99.90
19813;DHT22;10066;48.108;11.448;2023-02-13T03:04:16;2.10;99.90
19813;DHT22;10066;48.108;11.448;2023-02-13T03:07:04;2.10;99.90
19813;DHT22;10066;48.108;11.448;2023-02-13T03:09:38;2.10;99.90
19813;DHT22;10066;48.108;11.448;2023-02-13T03:12:32;2.10;99.90
19813;DHT22;10066;48.108;11.448;2023-02-13T03:15:19;2.10;99.90
19813;DHT22;10066;48.108;11.448;2023-02-13T03:17:47;2.10;99.90
19813;DHT22;10066;48.108;11.448;2023-02-13T03:20:40;2.10;99.90
19813;DHT22;10066;48.108;11.448;2023-02-13T03:23:36;2.10;99.90
19813;DHT22;10066;48.108;11.448;2023-02-13T03:26:20;2.10;99.90
19813;DHT22;10066;48.108;11.448;2023-02-13T03:29:03;2.10;99.90
19813;DHT22;10066;48.108;11.448;2023-02-13T03:31:54;2.10;99.90
19813;DHT22;10066;48.108;11.448;2023-02-13T03:34:29;2.10;99.90
19813;DHT22;10066;48.108;11.448;2023-02-13T03:37:22;2.10;99.90
19813;DHT22;10066;48.108;11.448;2023-02-13T03:40:13;2.10;99.90
19813;DHT22;10066;48.108;11.448;2023-02-13T03:42:44;2.10;99.90
19813;DHT22;10066;48.108;11.448;2023-02-13T03:45:15;2.10;99.90
19813;DHT22;10066;48.108;11.448;2023-02-13T03:48:03;2.10;99.90
19813;DHT22;10066;48.108;11.448;2023-02-13T03:50:37;2.10;99.90
19813;DHT22;10066;48.108;11.448;2023-02-13T03:53:09;2.10;99.90
19813;DHT22;10066;48.108;11.448;2023-02-13T03:55:41;2.10;99.90
19813;DHT22;10066;48.108;11.448;2023-02-13T03:58:29;2.20;99.90
19813;DHT22;10066;48.108;11.448;2023-02-13T04:01:17;2.10;99.90
19813;DHT22;10066;48.108;11.448;2023-02-13T04:03:48;2.10;99.90
19813;DHT22;10066;48.108;11.448;2023-02-13T04:06:20;2.10;99.90
19813;DHT22;10066;48.108;11.448;2023-02-13T04:08:49;2.10;99.90
19813;DHT22;10066;48.108;11.448;2023-02-13T04:11:20;2.10;99.90
19813;DHT22;10066;48.108;11.448;2023-02-13T04:13:52;2.00;99.90
19813;DHT22;10066;48.108;11.448;2023-02-13T04:16:26;2.00;99.90
19813;DHT22;10066;48.108;11.448;2023-02-13T04:18:55;2.10;99.90
19813;DHT22;10066;48.108;11.448;2023-02-13T04:21:23;2.00;99.90
19813;DHT22;10066;48.108;11.448;2023-02-13T04:23:52;2.00;99.90
19813;DHT22;10066;48.108;11.448;2023-02-13T04:26:22;2.00;99.90
19813;DHT22;10066;48.108;11.448;2023-02-13T04:28:49;2.00;99.90
19813;DHT22;10066;48.108;11.448;2023-02-13T04:31:16;1.90;99.90
19813;DHT22;10066;48.108;11.448;2023-02-13T04:33:42;1.90;99.90
19813;DHT22;10066;48.108;11.448;2023-02-13T04:36:09;1.90;99.90
19813;DHT22;10066;48.108;11.448;2023-02-13T04:38:36;1.90;99.90
19813;DHT22;10066;48.108;11.448;2023-02-13T04:41:07;1.90;99.90
19813;DHT22;10066;48.108;11.448;2023-02-13T04:43:34;1.90;99.90
19813;DHT22;10066;48.108;11.448;2023-02-13T04:46:02;1.90;99.90
19813;DHT22;10066;48.108;11.448;2023-02-13T04:48:29;1.90;99.90
19813;DHT22;10066;48.108;11.448;2023-02-13T04:50:56;1.90;99.90
19813;DHT22;10066;48.108;11.448;2023-02-13T04:53:23;1.90;99.90
19813;DHT22;10066;48.108;11.448;2023-02-13T04:55:51;1.80;99.90
19813;DHT22;10066;48.108;11.448;2023-02-13T04:58:19;1.80;99.90
19813;DHT22;10066;48.108;11.448;2023-02-13T05:00:46;1.80;99.90
19813;DHT22;10066;48.108;11.448;2023-02-13T05:03:13;1.80;99.90
19813;DHT22;10066;48.108;11.448;2023-02-13T05:05:40;1.80;99.90
19813;DHT22;10066;48.108;11.448;2023-02-13T05:08:08;1.90;99.90
19813;DHT22;10066;48.108;11.448;2023-02-13T05:10:35;1.90;99.90
19813;DHT22;10066;48.108;11.448;2023-02-13T05:13:02;1.90;99.90
19813;DHT22;10066;48.108;11.448;2023-02-13T05:15:31;2.00;99.90
19813;DHT22;10066;48.108;11.448;2023-02-13T05:17:58;2.00;99.90
19813;DHT22;10066;48.108;11.448;2023-02-13T05:20:25;2.00;99.90
19813;DHT22;10066;48.108;11.448;2023-02-13T05:22:53;2.00;99.90
19813;DHT22;10066;48.108;11.448;2023-02-13T05:25:39;2.10;99.90
19813;DHT22;10066;48.108;11.448;2023-02-13T05:28:06;2.10;99.90
19813;DHT22;10066;48.108;11.448;2023-02-13T05:30:55;2.10;99.90
19813;DHT22;10066;48.108;11.448;2023-02-13T05:33:21;2.10;99.90
19813;DHT22;10066;48.108;11.448;2023-02-13T05:35:48;2.10;99.90
19813;DHT22;10066;48.108;11.448;2023-02-13T05:38:15;2.10;99.90
19813;DHT22;10066;48.108;11.448;2023-02-13T05:40:43;2.10;99.90
19813;DHT22;10066;48.108;11.448;2023-02-13T05:43:10;2.10;99.90
19813;DHT22;10066;48.108;11.448;2023-02-13T05:45:36;2.10;99.90
19813;DHT22;10066;48.108;11.448;2023-02-13T05:48:05;2.10;99.90
19813;DHT22;10066;48.108;11.448;2023-02-13T05:50:32;2.20;99.90
19813;DHT22;10066;48.108;11.448;2023-02-13T05:52:59;2.10;99.90
19813;DHT22;10066;48.108;11.448;2023-02-13T05:55:26;2.20;99.90
19813;DHT22;10066;48.108;11.448;2023-02-13T05:57:55;2.20;99.90
19813;DHT22;10066;48.108;11.448;2023-02-13T06:00:22;2.20;99.90
19813;DHT22;10066;48.108;11.448;2023-02-13T06:02:49;2.20;99.90
19813;DHT22;10066;48.108;11.448;2023-02-13T06:05:17;2.20;99.90
19813;DHT22;10066;48.108;11.448;2023-02-13T06:07:44;2.20;99.90
19813;DHT22;10066;48.108;11.448;2023-02-13T06:10:11;2.20;99.90
19813;DHT22;10066;48.108;11.448;2023-02-13T06:12:38;2.20;99.90
19813;DHT22;10066;48.108;11.448;2023-02-13T06:15:05;2.20;99.90
19813;DHT22;10066;48.108;11.448;2023-02-13T06:17:34;2.20;99.90
19813;DHT22;10066;48.108;11.448;2023-02-13T06:20:00;2.20;99.90
19813;DHT22;10066;48.108;11.448;2023-02-13T06:22:29;2.10;99.90
19813;DHT22;10066;48.108;11.448;2023-02-13T06:24:56;2.10;99.90
19813;DHT22;10066;48.108;11.448;2023-02-13T06:27:23;2.20;99.90
19813;DHT22;10066;48.108;11.448;2023-02-13T06:29:49;2.20;99.90
19813;DHT22;10066;48.108;11.448;2023-02-13T06:32:16;2.30;99.90
19813;DHT22;10066;48.108;11.448;2023-02-13T06:34:44;2.30;99.90
19813;DHT22;10066;48.108;11.448;2023-02-13T06:37:11;2.40;99.90
19813;DHT22;10066;48.108;11.448;2023-02-13T06:39:39;2.40;99.90
19813;DHT22;10066;48.108;11.448;2023-02-13T06:42:07;2.40;99.90
19813;DHT22;10066;48.108;11.448;2023-02-13T06:44:34;2.40;99.90
19813;DHT22;10066;48.108;11.448;2023-02-13T06:47:01;2.40;99.90
19813;DHT22;10066;48.108;11.448;2023-02-13T06:49:28;2.40;99.90
19813;DHT22;10066;48.108;11.448;2023-02-13T06:51:54;2.40;99.90
19813;DHT22;10066;48.108;11.448;2023-02-13T06:54:21;2.50;99.90
19813;DHT22;10066;48.108;11.448;2023-02-13T06:56:50;2.50;99.90
19813;DHT22;10066;48.108;11.448;2023-02-13T06:59:16;2.60;99.90
19813;DHT22;10066;48.108;11.448;2023-02-13T07:01:43;2.60;99.90
19813;DHT22;10066;48.108;11.448;2023-02-13T07:04:10;2.70;99.90
19813;DHT22;10066;48.108;11.448;2023-02-13T07:06:37;2.70;99.90
19813;DHT22;10066;48.108;11.448;2023-02-13T07:09:04;2.70;99.90
19813;DHT22;10066;48.108;11.448;2023-02-13T07:11:31;2.60;99.90
19813;DHT22;10066;48.108;11.448;2023-02-13T07:13:59;2.60;99.90
19813;DHT22;10066;48.108;11.448;2023-02-13T07:16:26;2.60;99.90
19813;DHT22;10066;48.108;11.448;2023-02-13T07:18:53;2.60;99.90
19813;DHT22;10066;48.108;11.448;2023-02-13T07:21:20;2.50;99.90
19813;DHT22;10066;48.108;11.448;2023-02-13T07:23:47;2.50;99.90
19813;DHT22;10066;48.108;11.448;2023-02-13T07:26:14;2.50;99.90
19813;DHT22;10066;48.108;11.448;2023-02-13T07:28:42;2.50;99.90
19813;DHT22;10066;48.108;11.448;2023-02-13T07:31:10;2.50;99.90
19813;DHT22;10066;48.108;11.448;2023-02-13T07:33:37;2.50;99.90
19813;DHT22;10066;48.108;11.448;2023-02-13T07:36:04;2.50;99.90
19813;DHT22;10066;48.108;11.448;2023-02-13T07:38:32;2.50;99.90
19813;DHT22;10066;48.108;11.448;2023-02-13T07:40:59;2.50;99.90
19813;DHT22;10066;48.108;11.448;2023-02-13T07:43:27;2.50;99.90
19813;DHT22;10066;48.108;11.448;2023-02-13T07:45:57;2.40;99.90
19813;DHT22;10066;48.108;11.448;2023-02-13T07:48:26;2.40;99.90
19813;DHT22;10066;48.108;11.448;2023-02-13T07:50:53;2.50;99.90
19813;DHT22;10066;48.108;11.448;2023-02-13T07:53:23;2.50;99.90
19813;DHT22;10066;48.108;11.448;2023-02-13T07:55:50;2.50;99.90
19813;DHT22;10066;48.108;11.448;2023-02-13T07:58:17;2.50;99.90
19813;DHT22;10066;48.108;11.448;2023-02-13T08:00:44;2.50;99.90
19813;DHT22;10066;48.108;11.448;2023-02-13T08:03:11;2.50;99.90
19813;DHT22;10066;48.108;11.448;2023-02-13T08:05:39;2.50;99.90
19813;DHT22;10066;48.108;11.448;2023-02-13T08:08:06;2.60;99.90
19813;DHT22;10066;48.108;11.448;2023-02-13T08:10:33;2.60;99.90
19813;DHT22;10066;48.108;11.448;2023-02-13T08:13:19;2.60;99.90
19813;DHT22;10066;48.108;11.448;2023-02-13T08:15:46;2.60;99.90
19813;DHT22;10066;48.108;11.448;2023-02-13T08:18:13;2.70;99.90
19813;DHT22;10066;48.108;11.448;2023-02-13T08:20:41;2.70;99.90
19813;DHT22;10066;48.108;11.448;2023-02-13T08:23:09;2.60;99.90
19813;DHT22;10066;48.108;11.448;2023-02-13T08:25:36;2.50;99.90
19813;DHT22;10066;48.108;11.448;2023-02-13T08:28:04;2.40;99.90
19813;DHT22;10066;48.108;11.448;2023-02-13T08:30:31;2.40;99.90
19813;DHT22;10066;48.108;11.448;2023-02-13T08:32:58;2.40;99.90
19813;DHT22;10066;48.108;11.448;2023-02-13T08:35:25;2.40;99.90
19813;DHT22;10066;48.108;11.448;2023-02-13T08:38:00;2.50;99.90
19813;DHT22;10066;48.108;11.448;2023-02-13T08:40:27;2.50;99.90
19813;DHT22;10066;48.108;11.448;2023-02-13T08:42:59;2.60;99.90
19813;DHT22;10066;48.108;11.448;2023-02-13T08:45:26;2.60;99.90
19813;DHT22;10066;48.108;11.448;2023-02-13T08:47:55;2.70;99.90
19813;DHT22;10066;48.108;11.448;2023-02-13T08:50:22;2.70;99.90
19813;DHT22;10066;48.108;11.448;2023-02-13T08:52:49;2.70;99.90
19813;DHT22;10066;48.108;11.448;2023-02-13T08:55:17;2.70;99.90
19813;DHT22;10066;48.108;11.448;2023-02-13T08:57:45;2.70;99.90
19813;DHT22;10066;48.108;11.448;2023-02-13T09:00:12;2.80;99.90
19813;DHT22;10066;48.108;11.448;2023-02-13T09:02:40;2.80;99.90
19813;DHT22;10066;48.108;11.448;2023-02-13T09:05:07;2.80;99.90
19813;DHT22;10066;48.108;11.448;2023-02-13T09:07:33;2.90;99.90
19813;DHT22;10066;48.108;11.448;2023-02-13T09:10:00;2.90;99.90
19813;DHT22;10066;48.108;11.448;2023-02-13T09:12:29;2.90;99.90
19813;DHT22;10066;48.108;11.448;2023-02-13T09:14:59;2.90;99.90
19813;DHT22;10066;48.108;11.448;2023-02-13T09:17:26;2.90;99.90
19813;DHT22;10066;48.108;11.448;2023-02-13T09:19:53;3.00;99.90
19813;DHT22;10066;48.108;11.448;2023-02-13T09:22:20;3.00;99.90
19813;DHT22;10066;48.108;11.448;2023-02-13T09:24:47;3.00;99.90
19813;DHT22;10066;48.108;11.448;2023-02-13T09:27:14;3.10;99.90
19813;DHT22;10066;48.108;11.448;2023-02-13T09:29:42;3.00;99.90
19813;DHT22;10066;48.108;11.448;2023-02-13T09:32:09;3.00;99.90
19813;DHT22;10066;48.108;11.448;2023-02-13T09:34:35;3.10;99.90
19813;DHT22;10066;48.108;11.448;2023-02-13T09:37:02;3.10;99.90
19813;DHT22;10066;48.108;11.448;2023-02-13T09:39:29;3.20;99.90
19813;DHT22;10066;48.108;11.448;2023-02-13T09:41:57;3.20;99.90
19813;DHT22;10066;48.108;11.448;2023-02-13T09:44:29;3.30;99.90
19813;DHT22;10066;48.108;11.448;2023-02-13T09:47:14;3.30;99.90
19813;DHT22;10066;48.108;11.448;2023-02-13T09:49:45;3.40;99.90
19813;DHT22;10066;48.108;11.448;2023-02-13T09:52:12;3.40;99.90
19813;DHT22;10066;48.108;11.448;2023-02-13T09:54:39;3.50;99.90
19813;DHT22;10066;48.108;11.448;2023-02-13T09:57:14;3.50;99.90
19813;DHT22;10066;48.108;11.448;2023-02-13T09:59:52;3.60;99.90
19813;DHT22;10066;48.108;11.448;2023-02-13T10:02:36;3.60;99.90
19813;DHT22;10066;48.108;11.448;2023-02-13T10:05:21;3.60;99.90
19813;DHT22;10066;48.108;11.448;2023-02-13T10:07:56;3.70;99.90
19813;DHT22;10066;48.108;11.448;2023-02-13T10:10:31;3.70;99.90
19813;DHT22;10066;48.108;11.448;2023-02-13T10:13:20;3.70;99.90
19813;DHT22;10066;48.108;11.448;2023-02-13T10:15:54;3.80;99.90
19813;DHT22;10066;48.108;11.448;2023-02-13T10:18:27;3.80;99.90
19813;DHT22;10066;48.108;11.448;2023-02-13T10:20:59;3.80;99.90
19813;DHT22;10066;48.108;11.448;2023-02-13T10:23:30;3.80;99.90
19813;DHT22;10066;48.108;11.448;2023-02-13T10:26:00;3.90;99.90
19813;DHT22;10066;48.108;11.448;2023-02-13T10:28:32;3.80;99.90
19813;DHT22;10066;48.108;11.448;2023-02-13T10:31:04;3.80;99.90
19813;DHT22;10066;48.108;11.448;2023-02-13T10:33:40;3.80;99.90
19813;DHT22;10066;48.108;11.448;2023-02-13T10:36:16;3.80;99.90
19813;DHT22;10066;48.108;11.448;2023-02-13T10:38:48;3.80;99.90
19813;DHT22;10066;48.108;11.448;2023-02-13T10:41:23;3.90;99.90
19813;DHT22;10066;48.108;11.448;2023-02-13T10:44:04;3.80;99.90
19813;DHT22;10066;48.108;11.448;2023-02-13T10:46:42;3.90;99.90
19813;DHT22;10066;48.108;11.448;2023-02-13T10:49:25;3.90;99.90
19813;DHT22;10066;48.108;11.448;2023-02-13T10:51:59;3.90;99.90
19813;DHT22;10066;48.108;11.448;2023-02-13T10:57:24;4.00;99.90
19813;DHT22;10066;48.108;11.448;2023-02-13T11:00:04;4.00;99.90
19813;DHT22;10066;48.108;11.448;2023-02-13T11:02:34;4.00;99.90
19813;DHT22;10066;48.108;11.448;2023-02-13T11:05:15;4.00;99.90
19813;DHT22;10066;48.108;11.448;2023-02-13T11:07:44;4.00;99.90
19813;DHT22;10066;48.108;11.448;2023-02-13T11:10:16;4.00;99.90
19813;DHT22;10066;48.108;11.448;2023-02-13T11:12:44;3.90;99.90
19813;DHT22;10066;48.108;11.448;2023-02-13T11:15:21;3.80;99.90
19813;DHT22;10066;48.108;11.448;2023-02-13T11:17:51;3.70;99.90
19813;DHT22;10066;48.108;11.448;2023-02-13T11:20:30;3.70;99.90
19813;DHT22;10066;48.108;11.448;2023-02-13T11:23:16;3.80;99.90
19813;DHT22;10066;48.108;11.448;2023-02-13T11:25:55;3.80;99.90
19813;DHT22;10066;48.108;11.448;2023-02-13T11:28:23;3.90;99.90
19813;DHT22;10066;48.108;11.448;2023-02-13T11:30:50;3.90;99.90
19813;DHT22;10066;48.108;11.448;2023-02-13T11:33:22;3.90;99.90
19813;DHT22;10066;48.108;11.448;2023-02-13T11:36:05;3.90;99.90
19813;DHT22;10066;48.108;11.448;2023-02-13T11:38:33;3.90;99.90
19813;DHT22;10066;48.108;11.448;2023-02-13T11:41:07;4.00;99.90
19813;DHT22;10066;48.108;11.448;2023-02-13T11:43:36;4.10;99.90
19813;DHT22;10066;48.108;11.448;2023-02-13T11:46:15;4.10;99.90
19813;DHT22;10066;48.108;11.448;2023-02-13T11:48:58;4.20;99.90
19813;DHT22;10066;48.108;11.448;2023-02-13T11:51:39;4.20;99.90
19813;DHT22;10066;48.108;11.448;2023-02-13T11:54:22;4.20;99.90
19813;DHT22;10066;48.108;11.448;2023-02-13T11:56:52;4.20;99.90
19813;DHT22;10066;48.108;11.448;2023-02-13T11:59:21;4.20;99.90
19813;DHT22;10066;48.108;11.448;2023-02-13T12:02:00;4.20;99.90
19813;DHT22;10066;48.108;11.448;2023-02-13T12:04:28;4.20;99.90
19813;DHT22;10066;48.108;11.448;2023-02-13T12:07:01;4.30;99.90
19813;DHT22;10066;48.108;11.448;2023-02-13T12:09:32;4.30;99.90
19813;DHT22;10066;48.108;11.448;2023-02-13T12:12:00;4.30;99.90
19813;DHT22;10066;48.108;11.448;2023-02-13T12:14:32;4.30;99.90
19813;DHT22;10066;48.108;11.448;2023-02-13T12:17:03;4.30;99.90
19813;DHT22;10066;48.108;11.448;2023-02-13T12:19:36;4.40;99.90
19813;DHT22;10066;48.108;11.448;2023-02-13T12:34:06;4.20;99.90
19813;DHT22;10066;48.108;11.448;2023-02-13T12:36:48;4.00;99.90
19813;DHT22;10066;48.108;11.448;2023-02-13T12:39:25;4.00;99.90
19813;DHT22;10066;48.108;11.448;2023-02-13T12:42:07;4.10;99.90
19813;DHT22;10066;48.108;11.448;2023-02-13T12:44:53;3.90;99.90
19813;DHT22;10066;48.108;11.448;2023-02-13T12:47:26;4.20;99.90
19813;DHT22;10066;48.108;11.448;2023-02-13T12:53:20;4.30;99.90
19813;DHT22;10066;48.108;11.448;2023-02-13T12:56:19;4.40;99.90
19813;DHT22;10066;48.108;11.448;2023-02-13T12:59:06;4.50;99.90
19813;DHT22;10066;48.108;11.448;2023-02-13T13:01:53;4.60;99.90
19813;DHT22;10066;48.108;11.448;2023-02-13T13:04:33;4.60;99.90
19813;DHT22;10066;48.108;11.448;2023-02-13T13:07:18;4.70;99.90
19813;DHT22;10066;48.108;11.448;2023-02-13T13:09:58;4.70;99.90
19813;DHT22;10066;48.108;11.448;2023-02-13T13:12:46;4.80;99.90
19813;DHT22;10066;48.108;11.448;2023-02-13T13:15:23;4.80;99.90
19813;DHT22;10066;48.108;11.448;2023-02-13T13:18:07;4.80;99.90
19813;DHT22;10066;48.108;11.448;2023-02-13T13:20:56;4.80;99.90
19813;DHT22;10066;48.108;11.448;2023-02-13T13:23:30;4.70;99.90
19813;DHT22;10066;48.108;11.448;2023-02-13T13:26:06;4.70;99.90
19813;DHT22;10066;48.108;11.448;2023-02-13T13:28:40;4.60;99.90
19813;DHT22;10066;48.108;11.448;2023-02-13T13:31:09;4.50;99.90
19813;DHT22;10066;48.108;11.448;2023-02-13T13:33:40;4.40;99.90
19813;DHT22;10066;48.108;11.448;2023-02-13T13:36:12;4.30;99.90
19813;DHT22;10066;48.108;11.448;2023-02-13T13:38:52;4.20;99.90
19813;DHT22;10066;48.108;11.448;2023-02-13T13:41:28;4.10;99.90
19813;DHT22;10066;48.108;11.448;2023-02-13T13:44:09;4.00;99.90
19813;DHT22;10066;48.108;11.448;2023-02-13T13:46:47;4.10;99.90
19813;DHT22;10066;48.108;11.448;2023-02-13T13:49:28;4.10;99.90
19813;DHT22;10066;48.108;11.448;2023-02-13T13:52:19;4.20;99.90
19813;DHT22;10066;48.108;11.448;2023-02-13T13:54:47;4.30;99.90
19813;DHT22;10066;48.108;11.448;2023-02-13T13:57:16;4.30;99.90
19813;DHT22;10066;48.108;11.448;2023-02-13T14:00:26;4.20;99.90
19813;DHT22;10066;48.108;11.448;2023-02-13T14:03:33;4.10;99.90
19813;DHT22;10066;48.108;11.448;2023-02-13T14:09:03;4.40;99.90
19813;DHT22;10066;48.108;11.448;2023-02-13T14:11:36;4.10;99.90
19813;DHT22;10066;48.108;11.448;2023-02-13T14:16:53;3.90;99.90
19813;DHT22;10066;48.108;11.448;2023-02-13T14:19:27;3.90;99.90
19813;DHT22;10066;48.108;11.448;2023-02-13T14:22:25;3.80;99.90
19813;DHT22;10066;48.108;11.448;2023-02-13T14:24:55;3.90;99.90
19813;DHT22;10066;48.108;11.448;2023-02-13T14:27:24;3.80;99.90
19813;DHT22;10066;48.108;11.448;2023-02-13T14:29:54;3.70;99.90
19813;DHT22;10066;48.108;11.448;2023-02-13T14:32:26;3.60;99.90
19813;DHT22;10066;48.108;11.448;2023-02-13T14:34:59;3.60;99.90
19813;DHT22;10066;48.108;11.448;2023-02-13T14:37:32;3.60;99.90
19813;DHT22;10066;48.108;11.448;2023-02-13T14:40:41;3.70;99.90
19813;DHT22;10066;48.108;11.448;2023-02-13T14:43:31;3.70;99.90
19813;DHT22;10066;48.108;11.448;2023-02-13T14:46:05;3.60;99.90
19813;DHT22;10066;48.108;11.448;2023-02-13T14:48:40;3.60;99.90
19813;DHT22;10066;48.108;11.448;2023-02-13T14:51:15;3.60;99.90
19813;DHT22;10066;48.108;11.448;2023-02-13T14:53:48;3.70;99.90
19813;DHT22;10066;48.108;11.448;2023-02-13T14:56:19;3.70;99.90
19813;DHT22;10066;48.108;11.448;2023-02-13T14:58:51;3.70;99.90
19813;DHT22;10066;48.108;11.448;2023-02-13T15:01:31;3.80;99.90
19813;DHT22;10066;48.108;11.448;2023-02-13T15:04:05;3.80;99.90
19813;DHT22;10066;48.108;11.448;2023-02-13T15:06:35;3.90;99.90
19813;DHT22;10066;48.108;11.448;2023-02-13T15:09:14;3.90;99.90
19813;DHT22;10066;48.108;11.448;2023-02-13T15:11:43;3.90;99.90
19813;DHT22;10066;48.108;11.448;2023-02-13T15:14:20;3.80;99.90
19813;DHT22;10066;48.108;11.448;2023-02-13T15:16:51;3.80;99.90
19813;DHT22;10066;48.108;11.448;2023-02-13T15:19:23;3.70;99.90
19813;DHT22;10066;48.108;11.448;2023-02-13T15:21:53;3.70;99.90
19813;DHT22;10066;48.108;11.448;2023-02-13T15:24:22;3.80;99.90
19813;DHT22;10066;48.108;11.448;2023-02-13T15:26:55;3.80;99.90
19813;DHT22;10066;48.108;11.448;2023-02-13T15:29:23;3.80;99.90
19813;DHT22;10066;48.108;11.448;2023-02-13T15:31:51;3.90;99.90
19813;DHT22;10066;48.108;11.448;2023-02-13T15:34:26;3.90;99.90
19813;DHT22;10066;48.108;11.448;2023-02-13T15:36:54;3.90;99.90
19813;DHT22;10066;48.108;11.448;2023-02-13T15:39:23;3.90;99.90
19813;DHT22;10066;48.108;11.448;2023-02-13T15:41:53;3.90;99.90
19813;DHT22;10066;48.108;11.448;2023-02-13T15:44:24;4.00;99.90
19813;DHT22;10066;48.108;11.448;2023-02-13T15:46:52;4.00;99.90
19813;DHT22;10066;48.108;11.448;2023-02-13T15:49:24;3.90;99.90
19813;DHT22;10066;48.108;11.448;2023-02-13T15:52:01;3.90;99.90
19813;DHT22;10066;48.108;11.448;2023-02-13T15:54:29;3.90;99.90
19813;DHT22;10066;48.108;11.448;2023-02-13T15:56:59;3.90;99.90
19813;DHT22;10066;48.108;11.448;2023-02-13T15:59:31;3.90;99.90
19813;DHT22;10066;48.108;11.448;2023-02-13T16:01:59;3.90;99.90
19813;DHT22;10066;48.108;11.448;2023-02-13T16:04:28;3.90;99.90
19813;DHT22;10066;48.108;11.448;2023-02-13T16:06:55;3.90;99.90
19813;DHT22;10066;48.108;11.448;2023-02-13T16:09:25;3.80;99.90
19813;DHT22;10066;48.108;11.448;2023-02-13T16:11:56;3.70;99.90
19813;DHT22;10066;48.108;11.448;2023-02-13T16:14:26;3.70;99.90
19813;DHT22;10066;48.108;11.448;2023-02-13T16:16:55;3.70;99.90
19813;DHT22;10066;48.108;11.448;2023-02-13T16:19:40;3.60;99.90
19813;DHT22;10066;48.108;11.448;2023-02-13T16:22:21;3.60;99.90
19813;DHT22;10066;48.108;11.448;2023-02-13T16:24:52;3.70;99.90
19813;DHT22;10066;48.108;11.448;2023-02-13T16:27:23;3.70;99.90
19813;DHT22;10066;48.108;11.448;2023-02-13T16:29:57;3.60;99.90